createdAt,value
2022-09-14T00:01:27.386Z,100024.97
2022-09-14T00:03:57.071Z,100020.34
2022-09-14T00:06:24.324Z,100023.97
2022-09-14T00:08:52.946Z,100030.94
2022-09-14T00:11:21.436Z,100026.63
2022-09-14T00:13:48.953Z,100028.59
2022-09-14T00:16:21.661Z,100022.38
2022-09-14T00:18:53.532Z,100020.16
2022-09-14T00:21:21.366Z,100012.91
2022-09-14T00:23:48.473Z,100016.94
2022-09-14T00:26:18.606Z,100011.88
2022-09-14T00:28:48.433Z,100003.34
2022-09-14T00:31:15.920Z,100004.91
2022-09-14T00:33:44.325Z,99995.25
2022-09-14T00:36:14.119Z,99999.19
2022-09-14T00:38:41.924Z,99999.44
2022-09-14T00:41:13.615Z,99998.59
2022-09-14T00:44:04.956Z,99993.16
2022-09-14T00:46:36.312Z,99990.06
2022-09-14T00:49:05.866Z,99992.97
2022-09-14T00:51:34.039Z,99991.03
2022-09-14T00:54:03.187Z,99987.41
2022-09-14T00:56:30.872Z,99976.09
2022-09-14T00:58:58.900Z,99981.13
2022-09-14T01:01:26.497Z,99986.44
2022-09-14T01:03:53.731Z,99973.84
2022-09-14T01:06:31.080Z,99972.41
2022-09-14T01:09:07.299Z,99972.66
2022-09-14T01:11:48.228Z,99973.31
2022-09-14T01:14:24.152Z,99965.38
2022-09-14T01:17:07.249Z,99971.91
2022-09-14T01:19:43.170Z,99970.03
2022-09-14T01:22:15.148Z,99969.00
2022-09-14T01:24:48.706Z,99962.28
2022-09-14T01:27:35.516Z,99961.88
2022-09-14T01:30:07.609Z,99963.69
2022-09-14T01:33:02.258Z,99967.44
2022-09-14T01:35:31.128Z,99968.66
2022-09-14T01:38:08.063Z,99967.38
2022-09-14T01:40:47.308Z,99965.56
2022-09-14T01:43:18.336Z,99955.50
2022-09-14T01:45:51.934Z,99961.88
2022-09-14T01:48:23.599Z,99961.88
2022-09-14T01:50:53.169Z,99963.44
2022-09-14T01:53:37.737Z,99959.13
2022-09-14T01:56:15.312Z,99962.03
2022-09-14T01:58:48.592Z,99975.00
2022-09-14T02:01:22.147Z,99965.91
2022-09-14T02:03:52.598Z,99970.50
2022-09-14T02:06:29.133Z,99973.97
2022-09-14T02:08:56.309Z,99965.19
2022-09-14T02:11:23.363Z,99972.03
2022-09-14T02:13:50.480Z,99971.00
2022-09-14T02:16:18.750Z,99964.16
2022-09-14T02:18:45.853Z,99962.09
2022-09-14T02:21:23.154Z,99961.81
2022-09-14T02:23:50.277Z,99963.88
2022-09-14T02:26:19.341Z,99965.00
2022-09-14T02:28:47.046Z,99962.00
2022-09-14T02:31:23.512Z,99962.59
2022-09-14T02:34:00.015Z,99966.47
2022-09-14T02:36:41.265Z,99959.19
2022-09-14T02:39:24.409Z,99960.41
2022-09-14T02:42:01.548Z,99956.78
2022-09-14T02:44:37.894Z,99948.25
2022-09-14T02:47:33.821Z,99947.41
2022-09-14T02:50:29.304Z,99942.28
2022-09-14T02:53:04.488Z,99943.59
2022-09-14T02:55:35.710Z,99946.22
2022-09-14T02:58:08.485Z,99939.16
2022-09-14T03:00:41.114Z,99943.72
2022-09-14T03:03:09.565Z,99943.88
2022-09-14T03:05:37.282Z,99950.38
2022-09-14T03:08:04.904Z,99947.28
2022-09-14T03:10:32.881Z,99946.69
2022-09-14T03:13:00.144Z,99941.53
2022-09-14T03:15:27.757Z,99944.41
2022-09-14T03:17:55.521Z,99940.19
2022-09-14T03:20:26.612Z,99942.00
2022-09-14T03:22:53.905Z,99945.63
2022-09-14T03:25:22.846Z,99951.16
2022-09-14T03:27:55.049Z,99948.13
2022-09-14T03:30:22.369Z,99944.91
2022-09-14T03:32:49.653Z,99943.34
2022-09-14T03:35:17.594Z,99941.41
2022-09-14T03:37:45.996Z,99940.56
2022-09-14T03:40:19.306Z,99936.41
2022-09-14T03:42:48.971Z,99941.31
2022-09-14T03:45:16.850Z,99933.09
2022-09-14T03:47:44.092Z,99932.25
2022-09-14T03:50:12.634Z,99934.06
2022-09-14T03:52:40.063Z,99928.91
2022-09-14T03:55:09.140Z,99930.47
2022-09-14T03:57:36.574Z,99933.84
2022-09-14T04:00:06.416Z,99933.38
2022-09-14T04:02:33.567Z,99922.34
2022-09-14T04:05:00.665Z,99926.28
2022-09-14T04:07:27.916Z,99931.47
2022-09-14T04:09:55.716Z,99928.69
2022-09-14T04:12:22.896Z,99927.03
2022-09-14T04:14:50.037Z,99933.41
2022-09-14T04:17:17.545Z,99935.09
2022-09-14T04:19:44.769Z,99941.47
2022-09-14T04:22:11.908Z,99939.66
2022-09-14T04:24:38.973Z,99937.25
2022-09-14T04:27:06.067Z,99929.59
2022-09-14T04:29:33.156Z,99932.22
2022-09-14T04:32:00.349Z,99920.69
2022-09-14T04:34:27.464Z,99926.94
2022-09-14T04:36:54.556Z,99924.16
2022-09-14T04:39:22.270Z,99920.19
2022-09-14T04:41:49.495Z,99931.50
2022-09-14T04:44:16.587Z,99930.41
2022-09-14T04:46:46.970Z,99935.06
2022-09-14T04:49:18.809Z,99937.13
2022-09-14T04:51:46.037Z,99924.88
2022-09-14T04:54:14.879Z,99921.63
2022-09-14T04:56:42.205Z,99916.47
2022-09-14T04:59:10.249Z,99919.97
2022-09-14T05:01:43.608Z,99920.66
2022-09-14T05:04:11.733Z,99914.31
2022-09-14T05:06:40.585Z,99911.81
2022-09-14T05:09:13.093Z,99906.75
2022-09-14T05:11:40.848Z,99905.78
2022-09-14T05:14:09.203Z,99906.75
2022-09-14T05:16:37.798Z,99908.56
2022-09-14T05:19:07.341Z,99903.13
2022-09-14T05:21:36.188Z,99906.63
2022-09-14T05:24:12.552Z,99911.91
2022-09-14T05:26:39.739Z,99917.91
2022-09-14T05:29:06.937Z,99921.78
2022-09-14T05:31:34.139Z,99917.09
2022-09-14T05:34:01.270Z,99904.34
2022-09-14T05:36:28.376Z,99912.75
2022-09-14T05:38:57.590Z,99907.81
2022-09-14T05:41:24.847Z,99914.06
2022-09-14T05:43:51.972Z,99911.78
2022-09-14T05:46:22.187Z,99914.19
2022-09-14T05:48:51.827Z,99906.38
2022-09-14T05:51:22.322Z,99903.63
2022-09-14T05:53:58.099Z,99908.91
2022-09-14T05:56:29.983Z,99914.28
2022-09-14T05:58:58.164Z,99913.34
2022-09-14T06:01:27.587Z,99912.38
2022-09-14T06:04:02.572Z,99905.28
2022-09-14T06:06:31.405Z,99905.16
2022-09-14T06:08:58.738Z,99897.13
2022-09-14T06:11:29.072Z,99903.25
2022-09-14T06:13:56.880Z,99901.88
2022-09-14T06:16:25.074Z,99899.00
2022-09-14T06:18:52.243Z,99900.28
2022-09-14T06:21:20.416Z,99899.06
2022-09-14T06:23:48.408Z,99893.78
2022-09-14T06:26:16.394Z,99891.59
2022-09-14T06:28:43.984Z,99881.03
2022-09-14T06:31:15.019Z,99888.81
2022-09-14T06:33:45.948Z,99892.19
2022-09-14T06:36:15.463Z,99890.25
2022-09-14T06:38:42.717Z,99882.06
2022-09-14T06:41:12.991Z,99878.44
2022-09-14T06:43:41.633Z,99882.19
2022-09-14T06:46:23.842Z,99881.91
2022-09-14T06:48:54.817Z,99884.47
2022-09-14T06:51:25.775Z,99890.91
2022-09-14T06:53:53.855Z,99885.81
2022-09-14T06:56:21.512Z,99884.03
2022-09-14T06:58:49.894Z,99879.13
2022-09-14T07:01:18.223Z,99880.31
2022-09-14T07:03:46.909Z,99881.97
2022-09-14T07:06:16.646Z,99885.72
2022-09-14T07:08:44.239Z,99894.47
2022-09-14T07:11:13.061Z,99901.47
2022-09-14T07:13:40.407Z,99898.44
2022-09-14T07:16:08.086Z,99890.09
2022-09-14T07:18:35.455Z,99889.81
2022-09-14T07:21:05.746Z,99888.19
2022-09-14T07:23:33.995Z,99884.84
2022-09-14T07:26:07.681Z,99886.25
2022-09-14T07:28:35.418Z,99892.09
2022-09-14T07:31:02.513Z,99898.38
2022-09-14T07:33:29.717Z,99887.41
2022-09-14T07:36:08.088Z,99880.47
2022-09-14T07:38:51.570Z,99884.13
2022-09-14T07:41:21.359Z,99881.63
2022-09-14T07:43:50.060Z,99890.56
2022-09-14T07:46:17.192Z,99884.16
2022-09-14T07:48:44.545Z,99888.94
2022-09-14T07:51:12.099Z,99889.63
2022-09-14T07:53:42.619Z,99889.53
2022-09-14T07:56:10.934Z,99896.78
2022-09-14T07:58:38.311Z,99885.25
2022-09-14T08:01:08.583Z,99891.66
2022-09-14T08:03:40.129Z,99891.66
2022-09-14T08:06:10.794Z,99894.03
2022-09-14T08:08:39.759Z,99895.59
2022-09-14T08:11:11.123Z,99896.00
2022-09-14T08:13:40.453Z,99897.94
2022-09-14T08:16:08.050Z,99893.09
2022-09-14T08:18:36.326Z,99890.53
2022-09-14T08:21:11.285Z,99887.94
2022-09-14T08:23:38.940Z,99888.03
2022-09-14T08:26:10.651Z,99890.41
2022-09-14T08:28:38.445Z,99895.47
2022-09-14T08:31:21.034Z,99894.44
2022-09-14T08:33:53.289Z,99893.44
2022-09-14T08:36:21.471Z,99887.25
2022-09-14T08:38:49.062Z,99878.88
2022-09-14T08:41:20.844Z,99884.88
2022-09-14T08:43:48.055Z,99880.13
2022-09-14T08:46:27.634Z,99868.06
2022-09-14T08:48:54.811Z,99873.09
2022-09-14T08:51:22.092Z,99880.03
2022-09-14T08:53:50.784Z,99873.91
2022-09-14T08:56:34.202Z,99877.66
2022-09-14T08:59:24.129Z,99889.72
2022-09-14T09:02:24.837Z,99879.09
2022-09-14T09:04:59.307Z,99885.94
2022-09-14T09:07:42.040Z,99878.81
2022-09-14T09:10:10.876Z,99875.16
2022-09-14T09:12:49.231Z,99867.91
2022-09-14T09:15:39.125Z,99877.16
2022-09-14T09:18:22.101Z,99873.59
2022-09-14T09:21:01.779Z,99879.22
2022-09-14T09:23:30.000Z,99873.16
2022-09-14T09:26:07.236Z,99872.84
2022-09-14T09:28:34.598Z,99885.19
2022-09-14T09:31:05.303Z,99870.13
2022-09-14T09:33:33.032Z,99871.63
2022-09-14T09:36:00.163Z,99876.78
2022-09-14T09:38:29.050Z,99862.97
2022-09-14T09:41:11.867Z,99867.09
2022-09-14T09:44:09.299Z,99864.91
2022-09-14T09:46:51.994Z,99861.50
2022-09-14T09:49:22.398Z,99860.38
2022-09-14T09:51:50.346Z,99861.97
2022-09-14T09:54:31.003Z,99859.13
2022-09-14T09:56:58.746Z,99856.91
2022-09-14T09:59:41.018Z,99856.59
2022-09-14T10:02:27.618Z,99859.03
2022-09-14T10:04:58.849Z,99850.69
2022-09-14T10:07:26.652Z,99844.06
2022-09-14T10:10:13.790Z,99835.19
2022-09-14T10:12:47.245Z,99842.91
2022-09-14T10:15:21.099Z,99847.03
2022-09-14T10:18:04.484Z,99840.41
2022-09-14T10:20:31.822Z,99837.38
2022-09-14T10:23:17.366Z,99848.84
2022-09-14T10:26:14.091Z,99838.78
2022-09-14T10:28:43.185Z,99843.81
2022-09-14T10:31:20.774Z,99840.09
2022-09-14T10:33:53.889Z,99838.59
2022-09-14T10:36:40.017Z,99834.84
2022-09-14T10:39:26.197Z,99830.59
2022-09-14T10:42:01.441Z,99828.16
2022-09-14T10:44:50.304Z,99825.91
2022-09-14T10:47:36.020Z,99820.06
2022-09-14T10:50:32.264Z,99816.16
2022-09-14T10:53:09.801Z,99820.22
2022-09-14T10:55:55.684Z,99815.13
2022-09-14T10:58:40.065Z,99817.22
2022-09-14T11:01:29.613Z,99815.75
2022-09-14T11:04:17.649Z,99811.59
2022-09-14T11:06:58.102Z,99814.78
2022-09-14T11:09:42.422Z,99812.56
2022-09-14T11:12:45.138Z,99809.94
2022-09-14T11:15:33.496Z,99830.25
2022-09-14T11:18:09.593Z,99821.16
2022-09-14T11:20:58.563Z,99813.31
2022-09-14T11:23:49.215Z,99813.66
2022-09-14T11:26:31.371Z,99818.44
2022-09-14T11:29:29.119Z,99822.25
2022-09-14T11:32:22.508Z,99821.22
2022-09-14T11:35:01.795Z,99814.63
2022-09-14T11:37:40.159Z,99825.13
2022-09-14T11:40:22.516Z,99819.00
2022-09-14T11:42:58.202Z,99820.44
2022-09-14T11:45:35.680Z,99820.94
2022-09-14T11:48:38.323Z,99814.56
2022-09-14T11:51:15.775Z,99809.06
2022-09-14T11:53:43.813Z,99816.63
2022-09-14T11:56:26.882Z,99814.06
2022-09-14T11:58:55.838Z,99807.59
2022-09-14T12:01:26.429Z,99805.88
2022-09-14T12:03:56.130Z,99804.38
2022-09-14T12:06:32.202Z,99812.22
2022-09-14T12:09:37.225Z,99801.88
2022-09-14T12:12:08.010Z,99791.91
2022-09-14T12:14:36.513Z,99806.41
2022-09-14T12:17:38.896Z,99805.31
2022-09-14T12:20:46.029Z,99809.47
2022-09-14T12:23:32.996Z,99802.38
2022-09-14T12:26:06.067Z,99799.72
2022-09-14T12:28:38.948Z,99802.00
2022-09-14T12:31:08.061Z,99797.66
2022-09-14T12:33:35.278Z,99781.34
2022-09-14T12:36:07.292Z,99792.31
2022-09-14T12:38:37.005Z,99792.63
2022-09-14T12:41:09.796Z,99788.63
2022-09-14T12:43:37.045Z,99788.50
2022-09-14T12:46:31.423Z,99790.31
2022-09-14T12:49:03.040Z,99788.25
2022-09-14T12:51:32.741Z,99784.09
2022-09-14T12:54:08.517Z,99789.94
2022-09-14T12:56:41.276Z,99796.13
2022-09-14T12:59:36.365Z,99786.56
2022-09-14T13:02:33.985Z,99787.78
2022-09-14T13:05:03.019Z,99768.06
2022-09-14T13:07:35.990Z,99762.06
2022-09-14T13:10:04.920Z,99758.56
2022-09-14T13:12:38.890Z,99756.44
2022-09-14T13:15:10.455Z,99752.03
2022-09-14T13:17:37.569Z,99753.78
2022-09-14T13:20:05.985Z,99747.13
2022-09-14T13:22:33.300Z,99738.47
2022-09-14T13:25:03.636Z,99728.69
2022-09-14T13:27:32.728Z,99721.22
2022-09-14T13:30:11.824Z,99728.00
2022-09-14T13:32:44.179Z,99736.72
2022-09-14T13:35:33.641Z,99729.91
2022-09-14T13:38:09.290Z,99735.41
2022-09-14T13:40:36.460Z,99726.09
2022-09-14T13:43:03.919Z,99724.75
2022-09-14T13:45:31.149Z,99734.41
2022-09-14T13:47:58.335Z,99720.91
2022-09-14T13:50:26.971Z,99729.91
2022-09-14T13:53:03.465Z,99727.75
2022-09-14T13:55:34.001Z,99730.91
2022-09-14T13:58:11.380Z,99722.72
2022-09-14T14:01:06.359Z,99716.06
2022-09-14T14:03:42.080Z,99717.53
2022-09-14T14:06:29.504Z,99719.81
2022-09-14T14:09:05.961Z,99700.03
2022-09-14T14:11:47.545Z,99712.16
2022-09-14T14:14:30.796Z,99708.31
2022-09-14T14:17:22.838Z,99700.50
2022-09-14T14:19:52.387Z,99701.63
2022-09-14T14:22:37.404Z,99701.84
2022-09-14T14:25:29.622Z,99690.19
2022-09-14T14:28:01.978Z,99686.84
2022-09-14T14:30:30.204Z,99692.19
2022-09-14T14:32:58.751Z,99685.66
2022-09-14T14:35:31.365Z,99693.84
2022-09-14T14:37:58.908Z,99685.16
2022-09-14T14:40:29.565Z,99682.47
2022-09-14T14:42:58.362Z,99682.50
2022-09-14T14:45:26.621Z,99691.19
2022-09-14T14:47:54.943Z,99679.97
2022-09-14T14:50:24.677Z,99686.00
2022-09-14T14:52:51.955Z,99686.78
2022-09-14T14:55:20.984Z,99687.75
2022-09-14T14:57:49.241Z,99687.09
2022-09-14T15:00:18.882Z,99688.28
2022-09-14T15:02:46.112Z,99687.47
2022-09-14T15:05:13.679Z,99684.31
2022-09-14T15:07:40.940Z,99684.63
2022-09-14T15:10:08.827Z,99682.13
2022-09-14T15:12:35.930Z,99679.47
2022-09-14T15:15:03.551Z,99685.28
2022-09-14T15:17:30.731Z,99689.41
2022-09-14T15:19:57.858Z,99675.88
2022-09-14T15:22:25.198Z,99670.19
2022-09-14T15:24:52.293Z,99664.16
2022-09-14T15:27:19.364Z,99655.34
2022-09-14T15:29:46.407Z,99670.00
2022-09-14T15:32:14.690Z,99659.19
2022-09-14T15:34:41.791Z,99669.03
2022-09-14T15:37:09.275Z,99661.22
2022-09-14T15:39:36.717Z,99665.56
2022-09-14T15:42:04.114Z,99668.91
2022-09-14T15:44:32.829Z,99667.72
2022-09-14T15:46:59.932Z,99662.75
2022-09-14T15:49:27.183Z,99654.69
2022-09-14T15:51:55.774Z,99659.66
2022-09-14T15:54:24.452Z,99660.31
2022-09-14T15:56:53.794Z,99666.16
2022-09-14T15:59:21.671Z,99672.66
2022-09-14T16:01:48.956Z,99673.06
2022-09-14T16:04:16.130Z,99662.22
2022-09-14T16:06:43.208Z,99660.06
2022-09-14T16:09:11.704Z,99664.34
2022-09-14T16:11:39.452Z,99662.16
2022-09-14T16:14:08.098Z,99656.53
2022-09-14T16:16:35.888Z,99659.19
2022-09-14T16:19:10.908Z,99662.84
2022-09-14T16:21:38.735Z,99663.47
2022-09-14T16:24:12.479Z,99664.59
2022-09-14T16:26:39.718Z,99660.94
2022-09-14T16:29:11.621Z,99654.50
2022-09-14T16:31:40.270Z,99653.44
2022-09-14T16:34:10.828Z,99651.72
2022-09-14T16:36:39.740Z,99656.41
2022-09-14T16:39:10.745Z,99654.22
2022-09-14T16:41:40.369Z,99653.88
2022-09-14T16:44:09.413Z,99656.88
2022-09-14T16:46:36.497Z,99661.50
2022-09-14T16:49:06.079Z,99662.97
2022-09-14T16:51:33.341Z,99663.75
2022-09-14T16:54:00.551Z,99652.44
2022-09-14T16:56:35.467Z,99646.44
2022-09-14T16:59:03.736Z,99645.28
2022-09-14T17:01:36.757Z,99645.44
2022-09-14T17:04:08.401Z,99649.78
2022-09-14T17:06:37.513Z,99654.41
2022-09-14T17:09:07.832Z,99652.09
2022-09-14T17:11:36.873Z,99653.38
2022-09-14T17:14:05.130Z,99648.38
2022-09-14T17:16:32.639Z,99648.69
2022-09-14T17:19:02.083Z,99647.53
2022-09-14T17:21:32.143Z,99642.59
2022-09-14T17:23:59.346Z,99642.53
2022-09-14T17:26:26.649Z,99644.00
2022-09-14T17:28:56.240Z,99636.78
2022-09-14T17:31:26.692Z,99633.47
2022-09-14T17:33:55.416Z,99632.78
2022-09-14T17:36:22.944Z,99626.31
2022-09-14T17:38:50.277Z,99621.31
2022-09-14T17:41:21.730Z,99624.44
2022-09-14T17:43:57.714Z,99621.09
2022-09-14T17:46:25.586Z,99622.06
2022-09-14T17:48:52.972Z,99631.56
2022-09-14T17:51:25.907Z,99636.38
2022-09-14T17:53:54.399Z,99642.59
2022-09-14T17:56:23.498Z,99632.97
2022-09-14T17:59:32.661Z,99634.34
2022-09-14T18:01:59.798Z,99631.97
2022-09-14T18:04:26.968Z,99628.78
2022-09-14T18:06:54.287Z,99633.28
2022-09-14T18:09:22.800Z,99629.66
2022-09-14T18:11:50.682Z,99628.66
2022-09-14T18:14:18.348Z,99619.97
2022-09-14T18:16:45.841Z,99617.31
2022-09-14T18:19:13.904Z,99614.38
2022-09-14T18:21:41.008Z,99608.06
2022-09-14T18:24:10.316Z,99604.03
2022-09-14T18:26:38.513Z,99602.38
2022-09-14T18:29:05.674Z,99601.06
2022-09-14T18:31:32.884Z,99604.56
2022-09-14T18:34:00.775Z,99599.06
2022-09-14T18:36:29.647Z,99610.94
2022-09-14T18:39:00.401Z,99604.78
2022-09-14T18:41:33.832Z,99598.94
2022-09-14T18:44:01.651Z,99602.75
2022-09-14T18:46:29.092Z,99610.25
2022-09-14T18:49:00.433Z,99613.22
2022-09-14T18:51:28.938Z,99612.69
2022-09-14T18:54:03.650Z,99613.53
2022-09-14T18:56:33.187Z,99613.69
2022-09-14T18:59:01.554Z,99600.88
2022-09-14T19:01:29.228Z,99605.19
2022-09-14T19:03:58.201Z,99617.19
2022-09-14T19:06:25.666Z,99607.38
2022-09-14T19:08:52.817Z,99610.34
2022-09-14T19:11:24.151Z,99609.34
2022-09-14T19:14:01.598Z,99626.28
2022-09-14T19:16:29.539Z,99615.00
2022-09-14T19:18:56.693Z,99607.31
2022-09-14T19:21:27.779Z,99611.97
2022-09-14T19:24:03.264Z,99614.75
2022-09-14T19:26:43.982Z,99608.78
2022-09-14T19:29:14.341Z,99615.06
2022-09-14T19:31:41.505Z,99604.75
2022-09-14T19:34:10.559Z,99627.66
2022-09-14T19:36:37.672Z,99620.16
2022-09-14T19:39:05.137Z,99628.66
2022-09-14T19:41:33.443Z,99615.50
2022-09-14T19:44:01.490Z,99618.16
2022-09-14T19:46:31.027Z,99614.53
2022-09-14T19:48:58.179Z,99613.72
2022-09-14T19:51:27.216Z,99621.69
2022-09-14T19:53:56.121Z,99614.00
2022-09-14T19:56:25.570Z,99618.25
2022-09-14T19:58:54.783Z,99625.53
2022-09-14T20:01:23.299Z,99615.47
2022-09-14T20:03:50.909Z,99620.59
2022-09-14T20:06:22.582Z,99609.31
2022-09-14T20:08:51.894Z,99604.28
2022-09-14T20:11:21.060Z,99607.78
2022-09-14T20:13:48.491Z,99608.06
2022-09-14T20:16:19.252Z,99609.78
2022-09-14T20:18:47.549Z,99615.00
2022-09-14T20:21:16.984Z,99613.94
2022-09-14T20:24:04.267Z,99611.88
2022-09-14T20:26:31.585Z,99609.16
2022-09-14T20:29:00.493Z,99604.13
2022-09-14T20:31:28.783Z,99605.28
2022-09-14T20:33:56.931Z,99596.78
2022-09-14T20:36:25.211Z,99596.06
2022-09-14T20:38:59.153Z,99603.09
2022-09-14T20:41:29.935Z,99601.09
2022-09-14T20:43:57.823Z,99600.72
2022-09-14T20:46:27.636Z,99598.22
2022-09-14T20:48:54.892Z,99603.66
2022-09-14T20:51:23.036Z,99610.78
2022-09-14T20:53:50.130Z,99612.63
2022-09-14T20:56:22.364Z,99625.50
2022-09-14T20:58:52.516Z,99621.19
2022-09-14T21:01:21.330Z,99613.78
2022-09-14T21:03:49.562Z,99614.88
2022-09-14T21:06:19.343Z,99619.66
2022-09-14T21:08:46.752Z,99620.34
2022-09-14T21:11:19.529Z,99607.22
2022-09-14T21:13:46.653Z,99604.56
2022-09-14T21:16:17.770Z,99606.25
2022-09-14T21:18:45.873Z,99615.06
2022-09-14T21:21:14.851Z,99602.69
2022-09-14T21:23:42.342Z,99606.28
2022-09-14T21:26:11.232Z,99608.28
2022-09-14T21:28:39.476Z,99610.53
2022-09-14T21:31:09.548Z,99614.19
2022-09-14T21:33:38.257Z,99610.97
2022-09-14T21:36:16.180Z,99610.66
2022-09-14T21:38:43.268Z,99608.47
2022-09-14T21:41:11.571Z,99613.25
2022-09-14T21:43:39.992Z,99608.78
2022-09-14T21:46:08.106Z,99609.16
2022-09-14T21:48:36.350Z,99610.97
2022-09-14T21:51:08.809Z,99616.41
2022-09-14T21:53:36.042Z,99611.97
2022-09-14T21:56:07.221Z,99605.28
2022-09-14T21:58:34.445Z,99606.81
2022-09-14T22:01:02.658Z,99600.53
2022-09-14T22:03:29.828Z,99606.28
2022-09-14T22:06:01.860Z,99604.59
2022-09-14T22:08:31.134Z,99601.56
2022-09-14T22:11:05.748Z,99604.66
2022-09-14T22:13:33.273Z,99603.81
2022-09-14T22:16:11.700Z,99604.81
2022-09-14T22:18:40.137Z,99597.97
2022-09-14T22:21:08.043Z,99594.78
2022-09-14T22:23:35.507Z,99596.59
2022-09-14T22:26:09.125Z,99591.97
2022-09-14T22:28:39.992Z,99590.31
2022-09-14T22:31:08.409Z,99590.31
2022-09-14T22:33:35.567Z,99598.56
2022-09-14T22:36:03.962Z,99601.50
2022-09-14T22:38:34.061Z,99595.22
2022-09-14T22:41:04.231Z,99594.41
2022-09-14T22:43:32.728Z,99584.59
2022-09-14T22:46:00.012Z,99583.66
2022-09-14T22:48:27.516Z,99587.69
2022-09-14T22:50:56.454Z,99582.53
2022-09-14T22:53:24.686Z,99585.38
2022-09-14T22:55:52.190Z,99584.28
2022-09-14T22:58:22.268Z,99587.22
2022-09-14T23:00:49.383Z,99585.25
2022-09-14T23:03:17.859Z,99588.47
2022-09-14T23:05:50.363Z,99587.81
2022-09-14T23:08:18.235Z,99591.28
2022-09-14T23:10:46.172Z,99598.66
2022-09-14T23:13:13.299Z,99594.50
2022-09-14T23:15:40.448Z,99584.84
2022-09-14T23:18:07.621Z,99585.16
2022-09-14T23:20:39.404Z,99582.50
2022-09-14T23:23:07.216Z,99583.78
2022-09-14T23:25:35.468Z,99591.00
2022-09-14T23:28:04.147Z,99591.31
2022-09-14T23:30:32.095Z,99589.63
2022-09-14T23:33:00.046Z,99582.94
2022-09-14T23:35:27.771Z,99585.59
2022-09-14T23:37:55.244Z,99582.09
2022-09-14T23:40:22.876Z,99583.25
2022-09-14T23:42:50.075Z,99569.16
2022-09-14T23:45:17.203Z,99573.19
2022-09-14T23:47:45.955Z,99577.25
2022-09-14T23:50:13.016Z,99581.56
2022-09-14T23:52:40.575Z,99572.69
2022-09-14T23:55:08.136Z,99571.13
2022-09-14T23:57:36.524Z,99569.63
